Metar GG30 METAR message from awiacja.imgw.pl Metar G30 EPMO METAR EPMO 201530Z 19005KT 9999 SCT025 BKN039 05/00 Q1020 =